sensor_id;sensor_type;location;lat;lon;timestamp;P1;durP1;ratioP1;P2;durP2;ratioP2
10440;SDS011;5268;49.346;9.522;2023-10-13T03:10:15;21.38;;;11.45;;
10440;SDS011;5268;49.346;9.522;2023-10-13T03:15:19;12.25;;;10.95;;
10440;SDS011;5268;49.346;9.522;2023-10-13T03:20:28;25.05;;;13.25;;
10440;SDS011;5268;49.346;9.522;2023-10-13T03:25:33;18.45;;;12.10;;
10440;SDS011;5268;49.346;9.522;2023-10-13T03:30:42;52.65;;;13.98;;
10440;SDS011;5268;49.346;9.522;2023-10-13T03:35:44;17.48;;;11.23;;
10440;SDS011;5268;49.346;9.522;2023-10-13T03:40:55;12.38;;;11.05;;
10440;SDS011;5268;49.346;9.522;2023-10-13T03:46:07;12.13;;;10.93;;
10440;SDS011;5268;49.346;9.522;2023-10-13T03:51:09;75.15;;;18.15;;
10440;SDS011;5268;49.346;9.522;2023-10-13T03:56:16;12.50;;;11.00;;
10440;SDS011;5268;49.346;9.522;2023-10-13T04:01:26;11.07;;;9.88;;
10440;SDS011;5268;49.346;9.522;2023-10-13T04:06:32;11.32;;;10.10;;
10440;SDS011;5268;49.346;9.522;2023-10-13T04:11:53;10.80;;;9.70;;
10440;SDS011;5268;49.346;9.522;2023-10-13T04:17:09;10.35;;;9.07;;
10440;SDS011;5268;49.346;9.522;2023-10-13T04:22:14;11.82;;;10.63;;
10440;SDS011;5268;49.346;9.522;2023-10-13T04:27:22;45.97;;;14.05;;
10440;SDS011;5268;49.346;9.522;2023-10-13T04:32:44;12.45;;;11.15;;
10440;SDS011;5268;49.346;9.522;2023-10-13T04:38:06;11.25;;;9.70;;
10440;SDS011;5268;49.346;9.522;2023-10-13T04:43:21;37.95;;;11.45;;
10440;SDS011;5268;49.346;9.522;2023-10-13T04:48:37;20.30;;;11.13;;
10440;SDS011;5268;49.346;9.522;2023-10-13T04:53:39;13.23;;;9.90;;
10440;SDS011;5268;49.346;9.522;2023-10-13T04:59:08;19.13;;;9.55;;
10440;SDS011;5268;49.346;9.522;2023-10-13T05:04:18;29.65;;;8.90;;
10440;SDS011;5268;49.346;9.522;2023-10-13T05:09:30;11.18;;;8.95;;
10440;SDS011;5268;49.346;9.522;2023-10-13T05:14:51;10.98;;;8.35;;
10440;SDS011;5268;49.346;9.522;2023-10-13T05:20:10;67.05;;;9.88;;
10440;SDS011;5268;49.346;9.522;2023-10-13T05:25:30;8.90;;;7.20;;
10440;SDS011;5268;49.346;9.522;2023-10-13T05:30:54;7.57;;;6.65;;
10440;SDS011;5268;49.346;9.522;2023-10-13T05:36:17;7.90;;;6.88;;
10440;SDS011;5268;49.346;9.522;2023-10-13T05:41:36;9.23;;;7.15;;
10440;SDS011;5268;49.346;9.522;2023-10-13T05:46:57;18.75;;;8.52;;
10440;SDS011;5268;49.346;9.522;2023-10-13T05:52:28;20.45;;;8.25;;
10440;SDS011;5268;49.346;9.522;2023-10-13T05:57:53;11.30;;;8.82;;
10440;SDS011;5268;49.346;9.522;2023-10-13T06:03:13;8.50;;;7.70;;
10440;SDS011;5268;49.346;9.522;2023-10-13T06:08:33;50.53;;;9.25;;
10440;SDS011;5268;49.346;9.522;2023-10-13T06:13:52;26.60;;;8.52;;
10440;SDS011;5268;49.346;9.522;2023-10-13T06:19:12;34.00;;;7.93;;
10440;SDS011;5268;49.346;9.522;2023-10-13T06:24:32;36.63;;;9.68;;
10440;SDS011;5268;49.346;9.522;2023-10-13T06:29:51;37.92;;;11.15;;
10440;SDS011;5268;49.346;9.522;2023-10-13T06:34:55;49.15;;;10.05;;
10440;SDS011;5268;49.346;9.522;2023-10-13T06:39:59;24.83;;;9.98;;
10440;SDS011;5268;49.346;9.522;2023-10-13T06:45:06;16.30;;;9.98;;
10440;SDS011;5268;49.346;9.522;2023-10-13T06:50:10;10.35;;;8.73;;
10440;SDS011;5268;49.346;9.522;2023-10-13T06:55:16;18.15;;;13.20;;
10440;SDS011;5268;49.346;9.522;2023-10-13T07:00:23;15.80;;;11.15;;
10440;SDS011;5268;49.346;9.522;2023-10-13T07:05:33;13.63;;;9.55;;
10440;SDS011;5268;49.346;9.522;2023-10-13T07:10:35;11.35;;;10.23;;
10440;SDS011;5268;49.346;9.522;2023-10-13T07:15:48;15.15;;;9.52;;
10440;SDS011;5268;49.346;9.522;2023-10-13T07:20:51;15.35;;;10.55;;
10440;SDS011;5268;49.346;9.522;2023-10-13T07:25:57;10.20;;;8.35;;
10440;SDS011;5268;49.346;9.522;2023-10-13T07:31:02;9.15;;;8.20;;
10440;SDS011;5268;49.346;9.522;2023-10-13T07:36:14;8.13;;;7.07;;
10440;SDS011;5268;49.346;9.522;2023-10-13T07:41:28;9.00;;;8.10;;
10440;SDS011;5268;49.346;9.522;2023-10-13T07:46:33;9.45;;;8.20;;
10440;SDS011;5268;49.346;9.522;2023-10-13T07:51:36;7.82;;;6.97;;
10440;SDS011;5268;49.346;9.522;2023-10-13T07:56:44;6.65;;;5.90;;
10440;SDS011;5268;49.346;9.522;2023-10-13T08:01:46;6.32;;;5.72;;
10440;SDS011;5268;49.346;9.522;2023-10-13T08:06:52;7.03;;;6.43;;
10440;SDS011;5268;49.346;9.522;2023-10-13T08:12:02;5.97;;;5.43;;
10440;SDS011;5268;49.346;9.522;2023-10-13T08:17:10;7.40;;;6.32;;
10440;SDS011;5268;49.346;9.522;2023-10-13T08:22:14;7.50;;;6.80;;
10440;SDS011;5268;49.346;9.522;2023-10-13T08:27:24;7.55;;;6.55;;
10440;SDS011;5268;49.346;9.522;2023-10-13T08:32:37;8.52;;;6.32;;
10440;SDS011;5268;49.346;9.522;2023-10-13T08:37:48;7.60;;;6.90;;
10440;SDS011;5268;49.346;9.522;2023-10-13T08:43:04;7.55;;;6.75;;
10440;SDS011;5268;49.346;9.522;2023-10-13T08:48:11;7.28;;;6.55;;
10440;SDS011;5268;49.346;9.522;2023-10-13T08:53:16;8.88;;;6.63;;
10440;SDS011;5268;49.346;9.522;2023-10-13T08:58:27;8.70;;;5.88;;
10440;SDS011;5268;49.346;9.522;2023-10-13T09:03:50;8.10;;;5.53;;
10440;SDS011;5268;49.346;9.522;2023-10-13T09:08:55;7.75;;;5.47;;
10440;SDS011;5268;49.346;9.522;2023-10-13T09:14:12;7.43;;;5.13;;
10440;SDS011;5268;49.346;9.522;2023-10-13T09:19:33;9.82;;;5.70;;
10440;SDS011;5268;49.346;9.522;2023-10-13T09:24:49;6.82;;;5.25;;
10440;SDS011;5268;49.346;9.522;2023-10-13T09:29:55;8.20;;;5.35;;
10440;SDS011;5268;49.346;9.522;2023-10-13T09:34:59;8.80;;;5.60;;
10440;SDS011;5268;49.346;9.522;2023-10-13T09:40:07;7.53;;;4.90;;
10440;SDS011;5268;49.346;9.522;2023-10-13T09:45:26;8.13;;;4.68;;
10440;SDS011;5268;49.346;9.522;2023-10-13T09:50:37;6.45;;;3.97;;
10440;SDS011;5268;49.346;9.522;2023-10-13T09:55:46;11.73;;;4.28;;
10440;SDS011;5268;49.346;9.522;2023-10-13T10:00:52;6.70;;;3.63;;
10440;SDS011;5268;49.346;9.522;2023-10-13T10:06:06;8.13;;;4.22;;
10440;SDS011;5268;49.346;9.522;2023-10-13T10:11:19;7.72;;;4.20;;
10440;SDS011;5268;49.346;9.522;2023-10-13T10:16:43;6.72;;;4.10;;
10440;SDS011;5268;49.346;9.522;2023-10-13T10:22:00;5.28;;;3.67;;
10440;SDS011;5268;49.346;9.522;2023-10-13T10:27:12;5.20;;;3.70;;
10440;SDS011;5268;49.346;9.522;2023-10-13T10:32:14;7.93;;;4.20;;
10440;SDS011;5268;49.346;9.522;2023-10-13T10:37:16;8.25;;;4.28;;
10440;SDS011;5268;49.346;9.522;2023-10-13T10:42:22;7.15;;;4.10;;
10440;SDS011;5268;49.346;9.522;2023-10-13T10:47:29;9.82;;;4.22;;
10440;SDS011;5268;49.346;9.522;2023-10-13T10:52:32;6.38;;;3.63;;
10440;SDS011;5268;49.346;9.522;2023-10-13T10:57:39;8.82;;;4.00;;
10440;SDS011;5268;49.346;9.522;2023-10-13T11:02:43;5.32;;;3.38;;
10440;SDS011;5268;49.346;9.522;2023-10-13T11:07:55;7.20;;;3.45;;
10440;SDS011;5268;49.346;9.522;2023-10-13T11:12:59;9.27;;;3.70;;
10440;SDS011;5268;49.346;9.522;2023-10-13T11:18:13;5.82;;;3.33;;
10440;SDS011;5268;49.346;9.522;2023-10-13T11:23:21;8.63;;;4.10;;
10440;SDS011;5268;49.346;9.522;2023-10-13T11:28:26;8.32;;;3.85;;
10440;SDS011;5268;49.346;9.522;2023-10-13T11:33:28;9.45;;;3.58;;
10440;SDS011;5268;49.346;9.522;2023-10-13T11:38:32;7.90;;;4.00;;
10440;SDS011;5268;49.346;9.522;2023-10-13T11:43:47;6.15;;;3.70;;
10440;SDS011;5268;49.346;9.522;2023-10-13T11:49:09;7.13;;;3.70;;
10440;SDS011;5268;49.346;9.522;2023-10-13T11:54:19;6.93;;;3.85;;
10440;SDS011;5268;49.346;9.522;2023-10-13T11:59:23;7.78;;;3.80;;
10440;SDS011;5268;49.346;9.522;2023-10-13T12:04:27;7.50;;;3.95;;
10440;SDS011;5268;49.346;9.522;2023-10-13T12:09:33;8.18;;;4.00;;
10440;SDS011;5268;49.346;9.522;2023-10-13T12:14:53;7.78;;;4.20;;
10440;SDS011;5268;49.346;9.522;2023-10-13T12:19:56;6.13;;;3.50;;
10440;SDS011;5268;49.346;9.522;2023-10-13T12:24:59;7.03;;;3.60;;
10440;SDS011;5268;49.346;9.522;2023-10-13T12:30:06;7.80;;;3.85;;
10440;SDS011;5268;49.346;9.522;2023-10-13T12:35:13;6.85;;;3.60;;
10440;SDS011;5268;49.346;9.522;2023-10-13T12:40:27;5.60;;;3.70;;
10440;SDS011;5268;49.346;9.522;2023-10-13T12:45:48;7.40;;;3.58;;
10440;SDS011;5268;49.346;9.522;2023-10-13T12:51:08;6.28;;;3.78;;
10440;SDS011;5268;49.346;9.522;2023-10-13T12:56:21;10.68;;;4.00;;
10440;SDS011;5268;49.346;9.522;2023-10-13T13:01:27;7.50;;;3.85;;
10440;SDS011;5268;49.346;9.522;2023-10-13T13:06:33;7.43;;;3.83;;
10440;SDS011;5268;49.346;9.522;2023-10-13T13:11:35;8.82;;;3.58;;
10440;SDS011;5268;49.346;9.522;2023-10-13T13:16:41;8.82;;;4.00;;
10440;SDS011;5268;49.346;9.522;2023-10-13T13:21:48;9.18;;;4.32;;
10440;SDS011;5268;49.346;9.522;2023-10-13T13:26:50;8.80;;;3.90;;
10440;SDS011;5268;49.346;9.522;2023-10-13T13:31:56;9.48;;;3.65;;
10440;SDS011;5268;49.346;9.522;2023-10-13T13:37:00;9.10;;;4.20;;
10440;SDS011;5268;49.346;9.522;2023-10-13T13:42:02;7.43;;;4.15;;
10440;SDS011;5268;49.346;9.522;2023-10-13T13:47:05;8.32;;;3.85;;
10440;SDS011;5268;49.346;9.522;2023-10-13T13:52:11;9.68;;;3.75;;
10440;SDS011;5268;49.346;9.522;2023-10-13T13:57:17;5.28;;;3.25;;
10440;SDS011;5268;49.346;9.522;2023-10-13T14:02:21;6.97;;;3.63;;
10440;SDS011;5268;49.346;9.522;2023-10-13T14:07:23;7.97;;;3.50;;
10440;SDS011;5268;49.346;9.522;2023-10-13T14:12:25;5.82;;;3.65;;
10440;SDS011;5268;49.346;9.522;2023-10-13T14:17:31;7.35;;;3.72;;
10440;SDS011;5268;49.346;9.522;2023-10-13T14:22:35;7.15;;;3.33;;
10440;SDS011;5268;49.346;9.522;2023-10-13T14:27:38;8.23;;;3.45;;
10440;SDS011;5268;49.346;9.522;2023-10-13T14:32:41;7.82;;;3.75;;
10440;SDS011;5268;49.346;9.522;2023-10-13T14:37:43;6.88;;;3.33;;
10440;SDS011;5268;49.346;9.522;2023-10-13T14:42:45;5.18;;;3.45;;
10440;SDS011;5268;49.346;9.522;2023-10-13T14:47:49;9.63;;;3.40;;
10440;SDS011;5268;49.346;9.522;2023-10-13T14:52:52;6.40;;;3.42;;
10440;SDS011;5268;49.346;9.522;2023-10-13T14:57:54;6.90;;;3.15;;
10440;SDS011;5268;49.346;9.522;2023-10-13T15:02:58;9.68;;;3.65;;
10440;SDS011;5268;49.346;9.522;2023-10-13T15:08:02;9.27;;;3.55;;
10440;SDS011;5268;49.346;9.522;2023-10-13T15:13:06;5.85;;;3.47;;
10440;SDS011;5268;49.346;9.522;2023-10-13T15:18:10;7.65;;;3.55;;
10440;SDS011;5268;49.346;9.522;2023-10-13T15:23:12;7.85;;;3.65;;
10440;SDS011;5268;49.346;9.522;2023-10-13T15:28:23;10.70;;;4.60;;
10440;SDS011;5268;49.346;9.522;2023-10-13T15:33:32;5.63;;;3.70;;
10440;SDS011;5268;49.346;9.522;2023-10-13T15:38:34;7.05;;;3.67;;
10440;SDS011;5268;49.346;9.522;2023-10-13T15:43:37;6.72;;;3.60;;
10440;SDS011;5268;49.346;9.522;2023-10-13T15:48:51;6.53;;;3.55;;
10440;SDS011;5268;49.346;9.522;2023-10-13T15:53:54;6.72;;;3.55;;
10440;SDS011;5268;49.346;9.522;2023-10-13T15:58:56;7.20;;;3.63;;
10440;SDS011;5268;49.346;9.522;2023-10-13T16:04:02;7.30;;;3.80;;
10440;SDS011;5268;49.346;9.522;2023-10-13T16:09:10;6.32;;;3.50;;
10440;SDS011;5268;49.346;9.522;2023-10-13T16:14:15;7.97;;;3.95;;
10440;SDS011;5268;49.346;9.522;2023-10-13T16:19:19;9.93;;;4.07;;
10440;SDS011;5268;49.346;9.522;2023-10-13T16:24:23;6.28;;;3.90;;
10440;SDS011;5268;49.346;9.522;2023-10-13T16:29:25;5.93;;;4.07;;
10440;SDS011;5268;49.346;9.522;2023-10-13T16:34:32;9.65;;;4.63;;
10440;SDS011;5268;49.346;9.522;2023-10-13T16:39:34;6.25;;;4.45;;
10440;SDS011;5268;49.346;9.522;2023-10-13T16:44:39;9.65;;;4.35;;
10440;SDS011;5268;49.346;9.522;2023-10-13T16:49:42;6.93;;;4.30;;
10440;SDS011;5268;49.346;9.522;2023-10-13T16:54:44;8.57;;;4.50;;
10440;SDS011;5268;49.346;9.522;2023-10-13T16:59:46;8.52;;;4.65;;
10440;SDS011;5268;49.346;9.522;2023-10-13T17:04:50;9.73;;;4.75;;
10440;SDS011;5268;49.346;9.522;2023-10-13T17:09:57;12.02;;;4.72;;
10440;SDS011;5268;49.346;9.522;2023-10-13T17:14:59;7.13;;;4.78;;
10440;SDS011;5268;49.346;9.522;2023-10-13T17:20:15;7.80;;;4.68;;
10440;SDS011;5268;49.346;9.522;2023-10-13T17:25:17;9.25;;;4.65;;
10440;SDS011;5268;49.346;9.522;2023-10-13T17:30:19;8.18;;;4.68;;
10440;SDS011;5268;49.346;9.522;2023-10-13T17:35:23;8.32;;;4.70;;
10440;SDS011;5268;49.346;9.522;2023-10-13T17:40:25;9.10;;;4.40;;
10440;SDS011;5268;49.346;9.522;2023-10-13T17:45:27;6.38;;;4.50;;
10440;SDS011;5268;49.346;9.522;2023-10-13T17:50:32;10.32;;;5.07;;
10440;SDS011;5268;49.346;9.522;2023-10-13T17:55:36;10.90;;;6.25;;
10440;SDS011;5268;49.346;9.522;2023-10-13T18:00:39;8.68;;;5.10;;
10440;SDS011;5268;49.346;9.522;2023-10-13T18:05:46;12.15;;;5.65;;
10440;SDS011;5268;49.346;9.522;2023-10-13T18:10:51;8.77;;;5.65;;
10440;SDS011;5268;49.346;9.522;2023-10-13T18:15:53;8.07;;;5.25;;
10440;SDS011;5268;49.346;9.522;2023-10-13T18:21:01;10.73;;;5.93;;
10440;SDS011;5268;49.346;9.522;2023-10-13T18:26:08;7.85;;;5.80;;
10440;SDS011;5268;49.346;9.522;2023-10-13T18:31:12;7.82;;;5.18;;
10440;SDS011;5268;49.346;9.522;2023-10-13T18:36:16;8.23;;;5.20;;
10440;SDS011;5268;49.346;9.522;2023-10-13T18:41:19;9.00;;;5.53;;
10440;SDS011;5268;49.346;9.522;2023-10-13T18:46:22;9.82;;;5.07;;
10440;SDS011;5268;49.346;9.522;2023-10-13T18:51:26;9.23;;;5.70;;
10440;SDS011;5268;49.346;9.522;2023-10-13T18:56:32;8.75;;;5.85;;
10440;SDS011;5268;49.346;9.522;2023-10-13T19:01:34;10.18;;;6.32;;
10440;SDS011;5268;49.346;9.522;2023-10-13T19:06:39;9.68;;;5.47;;
10440;SDS011;5268;49.346;9.522;2023-10-13T19:11:42;10.00;;;5.47;;
10440;SDS011;5268;49.346;9.522;2023-10-13T19:16:45;8.60;;;5.00;;
10440;SDS011;5268;49.346;9.522;2023-10-13T19:21:49;9.82;;;5.95;;
10440;SDS011;5268;49.346;9.522;2023-10-13T19:26:51;9.63;;;5.60;;
10440;SDS011;5268;49.346;9.522;2023-10-13T19:31:54;8.63;;;5.30;;
10440;SDS011;5268;49.346;9.522;2023-10-13T19:36:57;9.68;;;6.10;;
10440;SDS011;5268;49.346;9.522;2023-10-13T19:42:03;10.40;;;5.68;;
10440;SDS011;5268;49.346;9.522;2023-10-13T19:47:07;8.23;;;5.35;;
10440;SDS011;5268;49.346;9.522;2023-10-13T19:52:15;11.02;;;5.43;;
10440;SDS011;5268;49.346;9.522;2023-10-13T19:57:22;7.80;;;5.35;;
10440;SDS011;5268;49.346;9.522;2023-10-13T20:02:24;7.60;;;5.35;;
10440;SDS011;5268;49.346;9.522;2023-10-13T20:07:28;7.38;;;5.07;;
10440;SDS011;5268;49.346;9.522;2023-10-13T20:12:30;7.45;;;5.60;;
10440;SDS011;5268;49.346;9.522;2023-10-13T20:17:31;6.57;;;5.10;;
10440;SDS011;5268;49.346;9.522;2023-10-13T20:22:35;8.32;;;5.55;;
10440;SDS011;5268;49.346;9.522;2023-10-13T20:27:39;7.70;;;5.80;;
10440;SDS011;5268;49.346;9.522;2023-10-13T20:32:42;9.05;;;5.25;;
10440;SDS011;5268;49.346;9.522;2023-10-13T20:37:47;8.35;;;5.60;;
10440;SDS011;5268;49.346;9.522;2023-10-13T20:42:49;8.27;;;4.95;;
10440;SDS011;5268;49.346;9.522;2023-10-13T20:47:52;8.30;;;5.13;;
10440;SDS011;5268;49.346;9.522;2023-10-13T20:52:56;9.30;;;5.50;;
10440;SDS011;5268;49.346;9.522;2023-10-13T20:58:00;8.07;;;5.35;;
10440;SDS011;5268;49.346;9.522;2023-10-13T21:03:02;6.93;;;4.95;;
10440;SDS011;5268;49.346;9.522;2023-10-13T21:08:08;7.80;;;5.43;;
10440;SDS011;5268;49.346;9.522;2023-10-13T21:13:10;9.13;;;5.32;;
10440;SDS011;5268;49.346;9.522;2023-10-13T21:18:12;6.78;;;4.70;;
10440;SDS011;5268;49.346;9.522;2023-10-13T21:23:15;8.13;;;5.38;;
10440;SDS011;5268;49.346;9.522;2023-10-13T21:28:21;8.88;;;5.55;;
10440;SDS011;5268;49.346;9.522;2023-10-13T21:33:23;8.60;;;5.22;;
10440;SDS011;5268;49.346;9.522;2023-10-13T21:38:26;5.95;;;4.70;;
10440;SDS011;5268;49.346;9.522;2023-10-13T21:43:28;8.88;;;5.18;;
10440;SDS011;5268;49.346;9.522;2023-10-13T21:48:30;8.18;;;5.22;;
10440;SDS011;5268;49.346;9.522;2023-10-13T21:53:36;7.60;;;5.03;;
